Time,TemperatureF,DewpointF,PressureIn,WindDirection,WindDirectionDegrees,WindSpeedMPH,WindSpeedGustMPH,Humidity,HourlyPrecipIn,Conditions,Clouds,dailyrainin,SoftwareType,DateUTC
2013-02-21 00:11:00,56.0,55.0,29.69,East,86,8.0,12.0,98,0.00,,,-99.99,,2013-02-21 06:11:00,
2013-02-21 00:21:00,56.0,55.0,29.69,East,86,8.0,12.0,98,0.00,,,-99.99,,2013-02-21 06:21:00,
2013-02-21 00:31:00,57.0,56.0,29.70,East,82,5.0,12.0,98,0.00,,,-99.99,,2013-02-21 06:31:00,
2013-02-21 00:41:00,58.0,57.0,29.71,East,90,0.0,9.0,98,0.00,,,-99.99,,2013-02-21 06:41:00,
2013-02-21 00:51:00,58.0,57.0,29.71,East,90,0.0,9.0,98,0.00,,,-99.99,,2013-02-21 06:51:00,
2013-02-21 01:01:00,58.0,57.0,29.70,East,84,6.0,9.0,98,0.00,,,-99.99,,2013-02-21 07:01:00,
2013-02-21 01:11:00,58.0,57.0,29.70,East,84,6.0,9.0,98,0.00,,,-99.99,,2013-02-21 07:11:00,
2013-02-21 01:21:00,58.0,57.0,29.70,East,84,6.0,9.0,98,0.00,,,-99.99,,2013-02-21 07:21:00,
2013-02-21 01:32:00,60.0,60.0,29.70,ESE,115,5.0,8.0,99,0.00,,,-99.99,,2013-02-21 07:32:00,
2013-02-21 01:42:00,59.0,58.0,29.70,NNE,20,1.0,11.0,98,0.00,,,-99.99,,2013-02-21 07:42:00,
2013-02-21 01:52:00,59.0,58.0,29.70,NNE,20,1.0,11.0,98,0.00,,,-99.99,,2013-02-21 07:52:00,
2013-02-21 02:01:00,59.0,58.0,29.69,East,101,1.0,5.0,98,0.00,,,-99.99,,2013-02-21 08:01:00,
2013-02-21 02:11:00,59.0,58.0,29.69,East,101,1.0,5.0,98,0.00,,,-99.99,,2013-02-21 08:11:00,
2013-02-21 02:21:00,59.0,58.0,29.69,East,101,1.0,5.0,98,0.00,,,-99.99,,2013-02-21 08:21:00,
2013-02-21 02:32:00,63.0,62.0,29.68,SSE,165,7.0,15.0,96,0.00,,,-99.99,,2013-02-21 08:32:00,
2013-02-21 02:41:00,64.0,62.0,29.67,SSE,150,6.0,14.0,93,0.00,,,-99.99,,2013-02-21 08:41:00,
2013-02-21 02:52:00,64.0,62.0,29.67,SSE,150,6.0,14.0,93,0.00,,,-99.99,,2013-02-21 08:52:00,
2013-02-21 03:01:00,64.0,61.0,29.66,SSE,152,6.0,12.0,91,0.00,,,-99.99,,2013-02-21 09:01:00,
2013-02-21 03:11:00,64.0,61.0,29.66,SSE,152,6.0,12.0,91,0.00,,,-99.99,,2013-02-21 09:11:00,
2013-02-21 03:22:00,65.0,62.0,29.65,ESE,113,7.0,12.0,91,0.00,,,-99.99,,2013-02-21 09:22:00,
2013-02-21 03:31:00,65.0,62.0,29.65,ESE,113,7.0,12.0,91,0.00,,,-99.99,,2013-02-21 09:31:00,
2013-02-21 03:41:00,65.0,62.0,29.63,SSE,159,6.0,11.0,90,0.00,,,-99.99,,2013-02-21 09:41:00,
2013-02-21 03:52:00,65.0,62.0,29.63,SSE,159,6.0,11.0,90,0.00,,,-99.99,,2013-02-21 09:52:00,
2013-02-21 04:01:00,65.0,62.0,29.63,SSE,148,5.0,11.0,90,0.00,,,-99.99,,2013-02-21 10:01:00,
2013-02-21 04:11:00,65.0,62.0,29.63,SSE,148,5.0,11.0,90,0.00,,,-99.99,,2013-02-21 10:11:00,
2013-02-21 04:21:00,65.0,62.0,29.62,SSE,153,6.0,11.0,90,0.00,,,-99.99,,2013-02-21 10:21:00,
2013-02-21 04:31:00,66.0,63.0,29.62,SSE,165,5.0,14.0,89,0.00,,,-99.99,,2013-02-21 10:31:00,
2013-02-21 04:41:00,66.0,63.0,29.62,SSE,165,5.0,14.0,89,0.00,,,-99.99,,2013-02-21 10:41:00,
2013-02-21 04:51:00,66.0,63.0,29.62,SSE,165,5.0,14.0,89,0.00,,,-99.99,,2013-02-21 10:51:00,
2013-02-21 05:01:00,65.0,62.0,29.63,SW,231,9.0,10.0,90,0.00,,,-99.99,,2013-02-21 11:01:00,
2013-02-21 05:11:00,65.0,62.0,29.63,SW,231,9.0,10.0,90,0.00,,,-99.99,,2013-02-21 11:11:00,
2013-02-21 05:21:00,65.0,62.0,29.64,SSE,157,4.0,9.0,90,0.00,,,-99.99,,2013-02-21 11:21:00,
2013-02-21 05:31:00,65.0,62.0,29.65,WSW,238,2.0,7.0,90,0.00,,,-99.99,,2013-02-21 11:31:00,
2013-02-21 05:41:00,65.0,62.0,29.65,WSW,238,2.0,7.0,90,0.00,,,-99.99,,2013-02-21 11:41:00,
2013-02-21 05:51:00,65.0,62.0,29.67,WSW,251,4.0,6.0,90,0.00,,,-99.99,,2013-02-21 11:51:00,
2013-02-21 06:01:00,65.0,62.0,29.67,WSW,251,4.0,6.0,90,0.00,,,-99.99,,2013-02-21 12:01:00,
2013-02-21 06:11:00,65.0,62.0,29.67,WNW,291,4.0,6.0,90,0.00,,,-99.99,,2013-02-21 12:11:00,
2013-02-21 06:21:00,65.0,62.0,29.67,WNW,291,4.0,6.0,90,0.00,,,-99.99,,2013-02-21 12:21:00,
2013-02-21 06:32:00,61.0,52.0,29.71,WNW,297,22.0,27.0,72,0.16,,,-99.99,,2013-02-21 12:32:00,
2013-02-21 06:43:00,58.0,50.0,29.72,NW,310,9.0,21.0,75,0.04,,,-99.99,,2013-02-21 12:43:00,
2013-02-21 06:53:00,58.0,50.0,29.72,NW,310,9.0,21.0,75,0.04,,,-99.99,,2013-02-21 12:53:00,
2013-02-21 07:01:00,57.0,45.0,29.74,NW,309,13.0,27.0,64,0.00,,,-99.99,,2013-02-21 13:01:00,
2013-02-21 07:32:00,55.0,44.0,29.77,NW,320,14.0,26.0,67,0.00,,,-99.99,,2013-02-21 13:32:00,
2013-02-21 07:41:00,53.0,43.0,29.79,NW,309,17.0,25.0,68,0.00,,,-99.99,,2013-02-21 13:41:00,
2013-02-21 07:52:00,53.0,43.0,29.79,NW,309,17.0,25.0,68,0.00,,,-99.99,,2013-02-21 13:52:00,
2013-02-21 08:02:00,53.0,43.0,29.81,NNW,333,8.0,25.0,69,0.00,,,-99.99,,2013-02-21 14:02:00,
2013-02-21 08:11:00,53.0,43.0,29.81,NNW,333,8.0,25.0,69,0.00,,,-99.99,,2013-02-21 14:11:00,
2013-02-21 08:21:00,53.0,42.0,29.83,WNW,293,5.0,12.0,67,0.00,,,-99.99,,2013-02-21 14:21:00,
2013-02-21 08:32:00,53.0,42.0,29.83,WNW,293,5.0,12.0,67,0.00,,,-99.99,,2013-02-21 14:32:00,
2013-02-21 08:41:00,55.0,36.0,29.84,WNW,298,18.0,19.0,49,0.00,,,-99.99,,2013-02-21 14:41:00,
2013-02-21 08:52:00,55.0,36.0,29.84,WNW,298,18.0,19.0,49,0.00,,,-99.99,,2013-02-21 14:52:00,
2013-02-21 09:01:00,55.0,35.0,29.85,NW,305,11.0,20.0,46,0.00,,,-99.99,,2013-02-21 15:01:00,
2013-02-21 09:12:00,55.0,34.0,29.86,West,263,8.0,20.0,45,0.00,,,-99.99,,2013-02-21 15:12:00,
2013-02-21 09:21:00,55.0,34.0,29.86,West,263,8.0,20.0,45,0.00,,,-99.99,,2013-02-21 15:21:00,
2013-02-21 09:32:00,56.0,32.0,29.86,WNW,302,11.0,21.0,40,0.00,,,-99.99,,2013-02-21 15:32:00,
2013-02-21 09:42:00,56.0,32.0,29.86,WNW,302,11.0,21.0,40,0.00,,,-99.99,,2013-02-21 15:42:00,
2013-02-21 09:52:00,56.0,32.0,29.86,WNW,302,11.0,21.0,40,0.00,,,-99.99,,2013-02-21 15:52:00,
2013-02-21 10:01:00,56.0,32.0,29.86,WNW,302,11.0,21.0,40,0.00,,,-99.99,,2013-02-21 16:01:00,
2013-02-21 10:10:00,58.0,26.0,29.87,NW,316,23.0,27.0,29,0.00,,,-99.99,,2013-02-21 16:10:00,
2013-02-21 10:12:00,57.0,27.0,29.87,WNW,298,23.0,27.0,32,0.00,,,-99.99,,2013-02-21 16:12:00,
2013-02-21 10:21:00,57.0,27.0,29.87,WNW,298,23.0,27.0,32,0.00,,,-99.99,,2013-02-21 16:21:00,
2013-02-21 10:32:00,58.0,26.0,29.87,NW,316,23.0,27.0,29,0.00,,,-99.99,,2013-02-21 16:32:00,
2013-02-21 10:42:00,58.0,26.0,29.87,NW,316,23.0,27.0,29,0.00,,,-99.99,,2013-02-21 16:42:00,
2013-02-21 10:52:00,58.0,26.0,29.87,NW,316,23.0,27.0,29,0.00,,,-99.99,,2013-02-21 16:52:00,
2013-02-21 11:01:00,58.0,26.0,29.87,NW,316,23.0,27.0,29,0.00,,,-99.99,,2013-02-21 17:01:00,
2013-02-21 11:32:00,60.0,25.0,29.86,WSW,256,9.0,26.0,26,0.00,,,-99.99,,2013-02-21 17:32:00,
2013-02-21 11:42:00,60.0,25.0,29.86,WSW,256,9.0,26.0,26,0.00,,,-99.99,,2013-02-21 17:42:00,
2013-02-21 11:52:00,60.0,25.0,29.86,WSW,256,9.0,26.0,26,0.00,,,-99.99,,2013-02-21 17:52:00,
2013-02-21 12:02:00,60.0,25.0,29.86,WSW,256,9.0,26.0,26,0.00,,,-99.99,,2013-02-21 18:02:00,
2013-02-21 12:11:00,63.0,27.0,29.85,West,273,13.0,23.0,25,0.00,,,-99.99,,2013-02-21 18:11:00,
2013-02-21 12:22:00,63.0,27.0,29.85,West,273,13.0,23.0,25,0.00,,,-99.99,,2013-02-21 18:22:00,
2013-02-21 12:32:00,64.0,27.0,29.85,West,278,8.0,25.0,25,0.00,,,-99.99,,2013-02-21 18:32:00,
2013-02-21 12:42:00,64.0,27.0,29.85,West,278,8.0,25.0,25,0.00,,,-99.99,,2013-02-21 18:42:00,
2013-02-21 12:51:00,64.0,27.0,29.85,West,278,8.0,25.0,25,0.00,,,-99.99,,2013-02-21 18:51:00,
2013-02-21 13:01:00,65.0,26.0,29.83,WNW,290,14.0,23.0,23,0.00,,,-99.99,,2013-02-21 19:01:00,
2013-02-21 13:12:00,65.0,26.0,29.83,WNW,290,14.0,23.0,23,0.00,,,-99.99,,2013-02-21 19:12:00,
2013-02-21 13:21:00,66.0,24.0,29.83,WNW,298,21.0,26.0,20,0.00,,,-99.99,,2013-02-21 19:21:00,
2013-02-21 13:31:00,66.0,23.0,29.82,West,263,14.0,24.0,19,0.00,,,-99.99,,2013-02-21 19:31:00,
2013-02-21 13:41:00,66.0,23.0,29.82,West,263,14.0,24.0,19,0.00,,,-99.99,,2013-02-21 19:41:00,
2013-02-21 13:52:00,67.0,21.0,29.80,West,280,20.0,29.0,17,0.00,,,-99.99,,2013-02-21 19:52:00,
2013-02-21 14:01:00,68.0,20.0,29.80,WNW,294,11.0,25.0,16,0.00,,,-99.99,,2013-02-21 20:01:00,
2013-02-21 14:11:00,68.0,20.0,29.80,WNW,294,11.0,25.0,16,0.00,,,-99.99,,2013-02-21 20:11:00,
2013-02-21 14:21:00,68.0,20.0,29.80,WNW,294,11.0,25.0,16,0.00,,,-99.99,,2013-02-21 20:21:00,
2013-02-21 14:31:00,68.0,19.0,29.79,WNW,294,17.0,24.0,15,0.00,,,-99.99,,2013-02-21 20:31:00,
2013-02-21 14:41:00,68.0,19.0,29.79,WNW,294,17.0,24.0,15,0.00,,,-99.99,,2013-02-21 20:41:00,
2013-02-21 14:50:00,69.0,16.0,29.79,WNW,295,7.0,23.0,13,0.00,,,-99.99,,2013-02-21 20:50:00,
2013-02-21 14:53:00,68.0,17.0,29.79,WSW,238,11.0,26.0,14,0.00,,,-99.99,,2013-02-21 20:53:00,
2013-02-21 15:02:00,68.0,17.0,29.79,WSW,238,11.0,26.0,14,0.00,,,-99.99,,2013-02-21 21:02:00,
2013-02-21 15:11:00,69.0,16.0,29.79,WNW,295,7.0,23.0,13,0.00,,,-99.99,,2013-02-21 21:11:00,
2013-02-21 15:21:00,69.0,16.0,29.79,WNW,295,7.0,23.0,13,0.00,,,-99.99,,2013-02-21 21:21:00,
2013-02-21 15:31:00,69.0,16.0,29.79,WNW,295,7.0,23.0,13,0.00,,,-99.99,,2013-02-21 21:31:00,
2013-02-21 15:42:00,69.0,16.0,29.79,WNW,295,7.0,23.0,13,0.00,,,-99.99,,2013-02-21 21:42:00,
2013-02-21 16:22:00,69.0,18.0,29.80,NNW,333,15.0,24.0,14,0.00,,,-99.99,,2013-02-21 22:22:00,
2013-02-21 16:32:00,70.0,19.0,29.79,West,277,10.0,20.0,14,0.00,,,-99.99,,2013-02-21 22:32:00,
2013-02-21 16:42:00,70.0,19.0,29.80,WNW,283,9.0,23.0,14,0.00,,,-99.99,,2013-02-21 22:42:00,
2013-02-21 16:52:00,70.0,19.0,29.80,WNW,283,9.0,23.0,14,0.00,,,-99.99,,2013-02-21 22:52:00,
2013-02-21 17:01:00,69.0,19.0,29.80,WSW,246,11.0,20.0,15,0.00,,,-99.99,,2013-02-21 23:01:00,
2013-02-21 17:11:00,69.0,19.0,29.80,WSW,246,11.0,20.0,15,0.00,,,-99.99,,2013-02-21 23:11:00,
2013-02-21 17:21:00,69.0,18.0,29.80,WSW,256,7.0,17.0,14,0.00,,,-99.99,,2013-02-21 23:21:00,
2013-02-21 17:31:00,69.0,18.0,29.81,WNW,287,11.0,17.0,14,0.00,,,-99.99,,2013-02-21 23:31:00,
2013-02-21 17:41:00,69.0,18.0,29.81,WNW,287,11.0,17.0,14,0.00,,,-99.99,,2013-02-21 23:41:00,
2013-02-21 17:52:00,69.0,19.0,29.81,West,269,5.0,15.0,15,0.00,,,-99.99,,2013-02-21 23:52:00,
2013-02-21 18:01:00,69.0,19.0,29.81,West,269,5.0,15.0,15,0.00,,,-99.99,,2013-02-22 00:01:00,
2013-02-21 18:11:00,69.0,19.0,29.81,West,269,5.0,15.0,15,0.00,,,-99.99,,2013-02-22 00:11:00,
2013-02-21 18:21:00,68.0,19.0,29.82,WNW,300,7.0,13.0,15,0.00,,,-99.99,,2013-02-22 00:21:00,
2013-02-21 18:32:00,67.0,19.0,29.82,WNW,295,8.0,9.0,16,0.00,,,-99.99,,2013-02-22 00:32:00,
2013-02-21 18:42:00,67.0,19.0,29.82,WNW,295,8.0,9.0,16,0.00,,,-99.99,,2013-02-22 00:42:00,
2013-02-21 18:52:00,65.0,19.0,29.84,WNW,300,3.0,7.0,17,0.00,,,-99.99,,2013-02-22 00:52:00,
2013-02-21 19:01:00,65.0,19.0,29.84,WNW,300,3.0,7.0,17,0.00,,,-99.99,,2013-02-22 01:01:00,
2013-02-21 19:11:00,65.0,19.0,29.84,WNW,300,3.0,7.0,17,0.00,,,-99.99,,2013-02-22 01:11:00,
2013-02-21 19:21:00,63.0,19.0,29.85,NNW,327,2.0,4.0,18,0.00,,,-99.99,,2013-02-22 01:21:00,
2013-02-21 19:32:00,62.0,18.0,29.85,NNW,343,1.0,3.0,18,0.00,,,-99.99,,2013-02-22 01:32:00,
2013-02-21 19:42:00,62.0,18.0,29.85,NNW,343,1.0,3.0,18,0.00,,,-99.99,,2013-02-22 01:42:00,
2013-02-21 19:52:00,62.0,18.0,29.85,NNW,343,1.0,3.0,18,0.00,,,-99.99,,2013-02-22 01:52:00,
2013-02-21 20:02:00,62.0,18.0,29.85,NNW,343,1.0,3.0,18,0.00,,,-99.99,,2013-02-22 02:02:00,
2013-02-21 20:11:00,58.0,20.0,29.86,North,356,6.0,6.0,23,0.00,,,-99.99,,2013-02-22 02:11:00,
2013-02-21 20:21:00,58.0,20.0,29.86,North,356,6.0,6.0,23,0.00,,,-99.99,,2013-02-22 02:21:00,
2013-02-21 20:32:00,59.0,22.0,29.88,NNW,335,1.0,5.0,24,0.00,,,-99.99,,2013-02-22 02:32:00,
2013-02-21 20:42:00,58.0,22.0,29.89,North,354,6.0,7.0,25,0.00,,,-99.99,,2013-02-22 02:42:00,
2013-02-21 20:52:00,58.0,22.0,29.89,North,354,6.0,7.0,25,0.00,,,-99.99,,2013-02-22 02:52:00,
2013-02-21 21:01:00,57.0,22.0,29.88,NW,322,7.0,9.0,26,0.00,,,-99.99,,2013-02-22 03:01:00,
2013-02-21 21:11:00,56.0,23.0,29.88,NNW,346,3.0,9.0,27,0.00,,,-99.99,,2013-02-22 03:11:00,
2013-02-21 21:21:00,56.0,23.0,29.88,NNW,346,3.0,9.0,27,0.00,,,-99.99,,2013-02-22 03:21:00,
2013-02-21 21:32:00,56.0,23.0,29.88,North,6,7.0,9.0,27,0.00,,,-99.99,,2013-02-22 03:32:00,
2013-02-21 21:42:00,56.0,23.0,29.88,North,6,7.0,9.0,27,0.00,,,-99.99,,2013-02-22 03:42:00,
2013-02-21 21:52:00,56.0,23.0,29.88,NW,326,5.0,10.0,28,0.00,,,-99.99,,2013-02-22 03:52:00,
2013-02-21 22:01:00,56.0,23.0,29.88,NNW,341,5.0,7.0,28,0.00,,,-99.99,,2013-02-22 04:01:00,
2013-02-21 22:11:00,56.0,23.0,29.88,NNW,341,5.0,7.0,28,0.00,,,-99.99,,2013-02-22 04:11:00,
2013-02-21 22:21:00,56.0,23.0,29.88,NNW,341,5.0,7.0,28,0.00,,,-99.99,,2013-02-22 04:21:00,
2013-02-21 22:32:00,56.0,23.0,29.89,NNE,30,3.0,6.0,27,0.00,,,-99.99,,2013-02-22 04:32:00,
2013-02-21 22:42:00,56.0,23.0,29.89,NNE,30,3.0,6.0,27,0.00,,,-99.99,,2013-02-22 04:42:00,
2013-02-21 22:52:00,56.0,23.0,29.89,NNE,30,3.0,6.0,27,0.00,,,-99.99,,2013-02-22 04:52:00,
2013-02-21 23:01:00,56.0,23.0,29.89,NNE,30,3.0,6.0,27,0.00,,,-99.99,,2013-02-22 05:01:00,
2013-02-21 23:12:00,56.0,23.0,29.89,NNE,30,3.0,6.0,27,0.00,,,-99.99,,2013-02-22 05:12:00,
2013-02-21 23:22:00,52.0,22.0,29.89,SE,128,1.0,2.0,31,0.00,,,-99.99,,2013-02-22 05:22:00,
2013-02-21 23:32:00,50.0,22.0,29.91,SE,130,1.0,3.0,33,0.00,,,-99.99,,2013-02-22 05:32:00,
2013-02-21 23:42:00,51.0,23.0,29.91,SSE,150,0.0,3.0,33,0.00,,,-99.99,,2013-02-22 05:42:00,
2013-02-21 23:52:00,51.0,23.0,29.91,SSE,150,0.0,3.0,33,0.00,,,-99.99,,2013-02-22 05:52:00,